Página principal
METAR-TAF:

METAR-TAF

Aeroportos :

La Palma, Espanha

latitude: 28-37N, longitude: 017-45W, altura: 29 m

Observação actual do tempo

O boletim foi feito há 17 minutos, às 21:30 UTC
Vento 3 kt de es-sudeste, variando entre es-nordeste e su-sudeste
Temperatura 21°C
Humidade 78%
Pressão 1018 hPa
Visibilidade 10 km ou mais

METAR: GCLA 232130Z AUTO 11003KT 070V150 9999 OVC024/// 21/17 Q1018

Hora: 22:47 (21:47 UTC)

Previsão

O boletim foi feito há 1 hora e 47 minutos, às 20:00 UTC
Previsão válida de 23 às 21 UTC a 24 às 21 UTC
Vento 5 kt com direcção variável
Visibilidade 10 km ou mais
Nuvens dispersasa uma altura de 2500 ft

TAF: GCLA 232000Z 2321/2421 VRB05KT 9999 SCT025 TX23/2414Z TN19/2405Z

Observações e previsões do tempo de mais de 4000 aeroportos (mensagens METAR e TAF).

As estações disponíveis são os pontos amarelos e vermelhos sobre o mapa.

Mova o rato sobre o mapa para ver o nome da estação.

Depois clique no ponto para visualizar as observações e previsões meteorológicas.

Para alterar o mapa : clique nos botões verdes com uma cruz preta para aumentar o zoom; no botão verde com uma pitada de zoom; ou nas setas verdes para mapas adjacentes.


METAR-TAF: